createdAt,value
2019-04-03T00:01:07.694Z,54.10
2019-04-03T00:03:36.155Z,54.60
2019-04-03T00:06:05.598Z,55.20
2019-04-03T00:08:36.147Z,55.40
2019-04-03T00:11:05.065Z,55.90
2019-04-03T00:13:33.614Z,58.00
2019-04-03T00:16:02.286Z,59.80
2019-04-03T00:18:30.940Z,62.60
2019-04-03T00:20:59.656Z,62.60
2019-04-03T00:23:28.190Z,63.70
2019-04-03T00:25:56.685Z,65.00
2019-04-03T00:28:25.453Z,66.10
2019-04-03T00:30:53.905Z,65.90
2019-04-03T00:33:23.374Z,66.30
2019-04-03T00:35:53.646Z,67.70
2019-04-03T00:38:23.921Z,67.40
2019-04-03T00:40:54.404Z,67.60
2019-04-03T00:43:24.615Z,67.80
2019-04-03T00:45:54.569Z,68.50
2019-04-03T00:48:25.737Z,69.20
2019-04-03T00:50:56.182Z,69.10
2019-04-03T00:53:24.405Z,70.20
2019-04-03T00:55:53.163Z,70.50
2019-04-03T00:58:36.212Z,70.60
2019-04-03T01:01:07.156Z,71.20
2019-04-03T01:03:35.594Z,71.40
2019-04-03T01:06:04.194Z,72.00
2019-04-03T01:08:32.826Z,72.10
2019-04-03T01:11:01.290Z,72.20
2019-04-03T01:13:31.318Z,72.50
2019-04-03T01:16:02.137Z,72.40
2019-04-03T01:18:30.699Z,73.10
2019-04-03T01:20:59.230Z,74.40
2019-04-03T01:23:27.750Z,73.80
2019-04-03T01:25:56.279Z,74.00
2019-04-03T01:28:24.711Z,74.70
2019-04-03T01:30:53.189Z,75.50
2019-04-03T01:33:21.764Z,75.40
2019-04-03T01:35:50.407Z,75.90
2019-04-03T01:38:19.470Z,76.50
2019-04-03T01:40:48.917Z,77.10
2019-04-03T01:43:18.913Z,77.60
2019-04-03T01:45:47.656Z,78.50
2019-04-03T01:48:16.156Z,78.40
2019-04-03T01:50:44.605Z,78.50
2019-04-03T01:53:13.071Z,78.90
2019-04-03T01:55:41.576Z,79.40
2019-04-03T01:58:10.277Z,79.80
2019-04-03T02:00:38.857Z,80.20
2019-04-03T02:03:09.736Z,80.80
2019-04-03T02:05:37.639Z,81.00
2019-04-03T02:08:06.241Z,81.00
2019-04-03T02:10:35.286Z,81.90
2019-04-03T02:13:04.091Z,81.70
2019-04-03T02:15:32.929Z,82.50
2019-04-03T02:18:01.425Z,82.50
2019-04-03T02:20:30.040Z,82.00
2019-04-03T02:23:00.408Z,82.40
2019-04-03T02:25:31.553Z,82.70
2019-04-03T02:27:58.863Z,82.80
2019-04-03T02:30:27.374Z,83.20
2019-04-03T02:32:57.259Z,82.90
2019-04-03T02:35:26.497Z,82.60
2019-04-03T02:37:55.024Z,82.00
2019-04-03T02:40:23.483Z,82.50
2019-04-03T02:42:52.219Z,82.30
2019-04-03T02:45:24.019Z,82.80
2019-04-03T02:47:51.337Z,83.10
2019-04-03T02:50:23.156Z,82.60
2019-04-03T02:52:52.120Z,82.80
2019-04-03T02:55:20.683Z,82.40
2019-04-03T02:57:49.984Z,82.50
2019-04-03T03:00:19.078Z,82.40
2019-04-03T03:02:47.652Z,82.50
2019-04-03T03:05:16.276Z,82.50
2019-04-03T03:07:45.209Z,82.70
2019-04-03T03:10:18.617Z,82.60
2019-04-03T03:12:45.430Z,82.60
2019-04-03T03:15:14.076Z,82.40
2019-04-03T03:17:42.807Z,82.40
2019-04-03T03:20:12.189Z,82.30
2019-04-03T03:22:41.156Z,82.70
2019-04-03T03:25:10.988Z,82.30
2019-04-03T03:27:41.707Z,81.90
2019-04-03T03:30:31.527Z,81.90
2019-04-03T03:32:40.944Z,82.00
2019-04-03T03:35:14.963Z,81.50
2019-04-03T03:37:40.790Z,81.60
2019-04-03T03:40:09.553Z,81.40
2019-04-03T03:42:38.261Z,81.20
2019-04-03T03:45:07.744Z,81.10
2019-04-03T03:47:37.769Z,81.30
2019-04-03T03:50:08.368Z,81.60
2019-04-03T03:52:39.204Z,81.70
2019-04-03T03:55:08.471Z,82.30
2019-04-03T03:57:40.315Z,82.40
2019-04-03T04:00:10.172Z,82.60
2019-04-03T04:02:43.104Z,82.60
2019-04-03T04:05:11.530Z,83.70
2019-04-03T04:07:39.799Z,83.50
2019-04-03T04:10:08.756Z,83.50
2019-04-03T04:12:41.297Z,83.50
2019-04-03T04:15:08.096Z,82.80
2019-04-03T04:17:36.994Z,82.70
2019-04-03T04:20:07.378Z,82.20
2019-04-03T04:22:37.360Z,81.90
2019-04-03T04:25:06.973Z,81.70
2019-04-03T04:27:37.904Z,81.90
2019-04-03T04:30:06.864Z,82.30
2019-04-03T04:32:35.556Z,81.40
2019-04-03T04:35:05.829Z,80.70
2019-04-03T04:37:34.649Z,80.20
2019-04-03T04:40:03.357Z,80.10
2019-04-03T04:42:34.408Z,79.60
2019-04-03T04:45:02.719Z,79.60
2019-04-03T04:47:31.308Z,79.50
2019-04-03T04:49:59.808Z,79.70
2019-04-03T04:52:28.366Z,80.00
2019-04-03T04:54:56.954Z,79.80
2019-04-03T04:57:25.544Z,79.80
2019-04-03T04:59:54.261Z,79.80
2019-04-03T05:02:28.423Z,79.70
2019-04-03T05:04:57.191Z,79.50
2019-04-03T05:07:25.780Z,79.00
2019-04-03T05:09:54.687Z,79.10
2019-04-03T05:12:23.168Z,79.00
2019-04-03T05:14:51.711Z,79.10
2019-04-03T05:17:20.154Z,78.90
2019-04-03T05:19:49.560Z,78.80
2019-04-03T05:22:18.135Z,79.10
2019-04-03T05:24:47.272Z,79.30
2019-04-03T05:27:15.899Z,79.50
2019-04-03T05:29:44.557Z,79.20
2019-04-03T05:32:13.071Z,78.90
2019-04-03T05:34:43.645Z,78.90
2019-04-03T05:37:12.549Z,79.20
2019-04-03T05:39:41.322Z,78.80
2019-04-03T05:42:10.049Z,78.90
2019-04-03T05:44:38.722Z,78.50
2019-04-03T05:47:08.455Z,78.20
2019-04-03T05:49:37.615Z,78.20
2019-04-03T05:52:06.071Z,78.60
2019-04-03T05:54:34.698Z,79.00
2019-04-03T05:57:03.233Z,78.10
2019-04-03T05:59:33.673Z,78.40
2019-04-03T06:02:14.130Z,78.00
2019-04-03T06:04:32.103Z,77.60
2019-04-03T06:07:01.032Z,77.50
2019-04-03T06:09:29.896Z,77.50
2019-04-03T06:11:58.726Z,77.70
2019-04-03T06:14:27.340Z,77.90
2019-04-03T06:16:56.707Z,78.30
2019-04-03T06:19:25.396Z,78.50
2019-04-03T06:21:53.975Z,78.70
2019-04-03T06:24:24.383Z,78.50
2019-04-03T06:26:52.795Z,77.80
2019-04-03T06:29:21.331Z,76.60
2019-04-03T06:31:49.787Z,76.00
2019-04-03T06:34:18.280Z,76.40
2019-04-03T06:36:50.162Z,75.90
2019-04-03T06:39:17.548Z,75.50
2019-04-03T06:41:46.713Z,74.70
2019-04-03T06:44:15.302Z,75.00
2019-04-03T06:46:43.772Z,74.60
2019-04-03T06:49:12.365Z,74.60
2019-04-03T06:51:41.112Z,75.40
2019-04-03T06:54:09.570Z,74.90
2019-04-03T06:56:40.001Z,74.80
2019-04-03T06:59:08.701Z,74.70
2019-04-03T07:01:37.334Z,75.30
2019-04-03T07:04:06.473Z,75.40
2019-04-03T07:06:35.586Z,75.00
2019-04-03T07:09:06.279Z,75.90
2019-04-03T07:11:34.751Z,76.30
2019-04-03T07:14:03.603Z,75.40
2019-04-03T07:16:32.547Z,75.30
2019-04-03T07:19:00.991Z,75.40
2019-04-03T07:21:29.498Z,75.20
2019-04-03T07:24:00.095Z,75.30
2019-04-03T07:26:28.554Z,76.00
2019-04-03T07:28:57.366Z,77.50
2019-04-03T07:31:25.882Z,78.90
2019-04-03T07:33:57.194Z,79.60
2019-04-03T07:36:24.595Z,81.10
2019-04-03T07:38:53.576Z,82.80
2019-04-03T07:41:23.424Z,82.90
2019-04-03T07:43:52.526Z,83.60
2019-04-03T07:46:21.310Z,83.50
2019-04-03T07:48:49.858Z,84.50
2019-04-03T07:51:18.334Z,84.30
2019-04-03T07:53:46.883Z,84.70
2019-04-03T07:56:15.470Z,84.60
2019-04-03T07:58:44.003Z,85.60
2019-04-03T08:01:12.523Z,85.40
2019-04-03T08:03:40.991Z,84.90
2019-04-03T08:06:09.546Z,84.50
2019-04-03T08:08:38.188Z,85.70
2019-04-03T08:11:06.651Z,85.10
2019-04-03T08:13:37.622Z,84.90
2019-04-03T08:16:05.346Z,85.50
2019-04-03T08:18:33.776Z,85.20
2019-04-03T08:21:02.361Z,85.70
2019-04-03T08:23:30.857Z,85.90
2019-04-03T08:25:59.420Z,86.30
2019-04-03T08:28:30.172Z,86.30
2019-04-03T08:30:58.060Z,84.50
2019-04-03T08:33:27.766Z,84.30
2019-04-03T08:35:56.896Z,83.60
2019-04-03T08:38:25.428Z,83.60
2019-04-03T08:40:53.913Z,82.80
2019-04-03T08:43:22.576Z,82.80
2019-04-03T08:45:51.053Z,82.90
2019-04-03T08:48:19.510Z,83.90
2019-04-03T08:50:47.957Z,84.50
2019-04-03T08:53:16.469Z,85.40
2019-04-03T08:55:46.407Z,85.70
2019-04-03T08:58:15.152Z,85.00
2019-04-03T09:00:43.671Z,85.10
2019-04-03T09:03:14.428Z,86.70
2019-04-03T09:05:42.523Z,86.80
2019-04-03T09:08:11.054Z,81.30
2019-04-03T09:10:39.554Z,82.30
2019-04-03T09:13:16.950Z,82.00
2019-04-03T09:15:38.424Z,82.30
2019-04-03T09:18:07.686Z,84.20
2019-04-03T09:20:36.825Z,84.10
2019-04-03T09:23:05.499Z,86.90
2019-04-03T09:25:34.110Z,85.20
2019-04-03T09:28:03.028Z,84.90
2019-04-03T09:30:31.782Z,86.70
2019-04-03T09:33:00.752Z,87.90
2019-04-03T09:35:32.070Z,88.10
2019-04-03T09:38:00.752Z,87.60
2019-04-03T09:40:29.487Z,89.30
2019-04-03T09:43:04.200Z,90.00
2019-04-03T09:45:32.986Z,90.20
2019-04-03T09:48:05.050Z,88.50
2019-04-03T09:50:33.452Z,89.90
2019-04-03T09:53:02.843Z,88.00
2019-04-03T09:55:36.034Z,84.50
2019-04-03T09:58:03.214Z,83.00
2019-04-03T10:00:31.948Z,81.20
2019-04-03T10:03:00.776Z,81.90
2019-04-03T10:05:29.750Z,82.40
2019-04-03T10:07:58.379Z,81.50
2019-04-03T10:10:27.057Z,80.10
2019-04-03T10:12:55.566Z,83.70
2019-04-03T10:15:24.147Z,84.10
2019-04-03T10:17:52.856Z,77.60
2019-04-03T10:20:21.415Z,79.40
2019-04-03T10:22:49.937Z,76.20
2019-04-03T10:25:18.813Z,77.00
2019-04-03T10:27:47.326Z,79.00
2019-04-03T10:30:16.624Z,78.50
2019-04-03T10:32:45.684Z,81.20
2019-04-03T10:35:14.816Z,79.00
2019-04-03T10:37:45.697Z,77.80
2019-04-03T10:40:15.545Z,74.10
2019-04-03T10:42:44.245Z,73.30
2019-04-03T10:45:13.629Z,76.00
2019-04-03T10:47:44.075Z,75.30
2019-04-03T10:50:12.797Z,74.70
2019-04-03T10:52:44.063Z,75.20
2019-04-03T10:55:11.790Z,74.60
2019-04-03T10:57:40.334Z,74.80
2019-04-03T11:00:12.369Z,74.60
2019-04-03T11:02:41.085Z,75.60
2019-04-03T11:05:11.208Z,76.80
2019-04-03T11:07:39.680Z,76.20
2019-04-03T11:10:10.076Z,76.20
2019-04-03T11:12:38.661Z,75.70
2019-04-03T11:15:10.824Z,75.20
2019-04-03T11:17:38.901Z,75.40
2019-04-03T11:20:09.713Z,76.90
2019-04-03T11:22:41.671Z,78.30
2019-04-03T11:25:09.698Z,75.80
2019-04-03T11:27:44.058Z,76.20
2019-04-03T11:30:16.953Z,75.40
2019-04-03T11:32:45.181Z,76.80
2019-04-03T11:35:15.238Z,76.90
2019-04-03T11:37:43.822Z,78.30
2019-04-03T11:40:13.311Z,78.00
2019-04-03T11:42:41.763Z,77.90
2019-04-03T11:45:11.261Z,77.20
2019-04-03T11:47:39.853Z,78.20
2019-04-03T11:50:09.503Z,78.50
2019-04-03T11:52:38.187Z,79.10
2019-04-03T11:55:10.010Z,80.50
2019-04-03T11:57:37.709Z,79.40
2019-04-03T12:00:11.074Z,79.50
2019-04-03T12:02:40.367Z,78.90
2019-04-03T12:05:10.177Z,79.50
2019-04-03T12:07:38.642Z,78.10
2019-04-03T12:10:07.582Z,79.30
2019-04-03T12:12:41.643Z,81.40
2019-04-03T12:15:09.700Z,81.40
2019-04-03T12:17:38.883Z,81.20
2019-04-03T12:20:09.372Z,81.10
2019-04-03T12:22:38.516Z,79.80
2019-04-03T12:25:08.360Z,80.60
2019-04-03T12:27:36.980Z,81.30
2019-04-03T12:30:09.531Z,81.70
2019-04-03T12:32:43.007Z,81.20
2019-04-03T12:35:09.738Z,81.40
2019-04-03T12:37:39.261Z,80.70
2019-04-03T12:40:08.604Z,81.90
2019-04-03T12:42:37.123Z,81.20
2019-04-03T12:45:07.450Z,80.20
2019-04-03T12:47:36.175Z,78.60
2019-04-03T12:50:07.514Z,79.70
2019-04-03T12:52:36.607Z,81.80
2019-04-03T12:55:08.627Z,81.90
2019-04-03T12:57:39.266Z,80.30
2019-04-03T13:00:12.945Z,77.90
2019-04-03T13:02:42.354Z,80.40
2019-04-03T13:05:12.003Z,80.70
2019-04-03T13:07:40.634Z,82.10
2019-04-03T13:10:10.121Z,81.90
2019-04-03T13:12:38.669Z,82.30
2019-04-03T13:15:09.691Z,82.80
2019-04-03T13:17:38.312Z,81.30
2019-04-03T13:20:08.080Z,81.80
2019-04-03T13:22:36.595Z,82.50
2019-04-03T13:25:09.593Z,81.90
2019-04-03T13:27:38.317Z,83.20
2019-04-03T13:30:12.889Z,82.80
2019-04-03T13:32:43.035Z,81.90
2019-04-03T13:35:14.646Z,81.50
2019-04-03T13:37:42.550Z,78.60
2019-04-03T13:40:11.831Z,78.80
2019-04-03T13:42:40.407Z,77.70
2019-04-03T13:45:09.444Z,77.60
2019-04-03T13:47:41.756Z,77.10
2019-04-03T13:50:09.507Z,77.50
2019-04-03T13:52:42.576Z,79.70
2019-04-03T13:55:09.625Z,79.40
2019-04-03T13:57:38.598Z,78.70
2019-04-03T14:00:18.278Z,78.80
2019-04-03T14:02:40.127Z,79.30
2019-04-03T14:05:09.758Z,78.30
2019-04-03T14:07:41.510Z,79.80
2019-04-03T14:10:09.777Z,80.00
2019-04-03T14:12:43.201Z,78.40
2019-04-03T14:15:09.769Z,80.00
2019-04-03T14:17:39.139Z,78.60
2019-04-03T14:20:09.047Z,79.30
2019-04-03T14:22:37.631Z,79.40
2019-04-03T14:25:17.787Z,80.30
2019-04-03T14:27:37.745Z,80.40
2019-04-03T14:30:11.749Z,79.80
2019-04-03T14:32:40.256Z,80.40
2019-04-03T14:35:41.097Z,79.50
2019-04-03T14:37:39.830Z,80.60
2019-04-03T14:40:11.100Z,80.70
2019-04-03T14:42:39.149Z,80.90
2019-04-03T14:45:08.979Z,80.80
2019-04-03T14:47:37.539Z,81.00
2019-04-03T14:50:07.174Z,81.30
2019-04-03T14:52:36.326Z,81.00
2019-04-03T14:55:23.334Z,82.10
2019-04-03T14:57:37.472Z,82.70
2019-04-03T15:00:25.225Z,84.20
2019-04-03T15:02:41.390Z,84.90
2019-04-03T15:05:11.934Z,85.80
2019-04-03T15:07:40.595Z,85.70
2019-04-03T15:10:09.793Z,84.30
2019-04-03T15:12:39.745Z,85.70
2019-04-03T15:15:09.675Z,86.90
2019-04-03T15:17:38.902Z,87.10
2019-04-03T15:20:09.771Z,86.60
2019-04-03T15:22:38.373Z,87.90
2019-04-03T15:25:07.505Z,86.70
2019-04-03T15:27:36.433Z,86.30
2019-04-03T15:30:09.960Z,87.20
2019-04-03T15:32:38.190Z,87.60
2019-04-03T15:35:07.974Z,87.10
2019-04-03T15:37:40.087Z,87.50
2019-04-03T15:40:07.976Z,87.50
2019-04-03T15:42:38.405Z,87.80
2019-04-03T15:45:08.963Z,88.40
2019-04-03T15:47:41.756Z,88.10
2019-04-03T15:50:08.969Z,88.40
2019-04-03T15:52:38.592Z,88.90
2019-04-03T15:55:08.391Z,89.50
2019-04-03T15:57:39.610Z,89.60
2019-04-03T16:00:15.993Z,90.10
2019-04-03T16:02:46.379Z,90.20
2019-04-03T16:05:15.569Z,90.10
2019-04-03T16:07:44.950Z,90.30
2019-04-03T16:10:14.247Z,90.30
2019-04-03T16:12:44.022Z,90.60
2019-04-03T16:15:12.840Z,90.60
2019-04-03T16:17:41.996Z,90.50
2019-04-03T16:20:11.489Z,90.40
2019-04-03T16:22:40.238Z,90.40
2019-04-03T16:25:09.338Z,90.30
2019-04-03T16:27:37.996Z,90.20
2019-04-03T16:30:08.825Z,90.20
2019-04-03T16:32:37.679Z,90.40
2019-04-03T16:35:07.815Z,90.60
2019-04-03T16:37:36.550Z,89.80
2019-04-03T16:40:07.019Z,88.30
2019-04-03T16:42:35.652Z,88.90
2019-04-03T16:45:08.519Z,88.50
2019-04-03T16:47:37.258Z,89.20
2019-04-03T16:50:09.887Z,89.20
2019-04-03T16:52:38.766Z,90.00
2019-04-03T16:55:09.117Z,89.20
2019-04-03T16:57:38.269Z,90.00
2019-04-03T17:00:09.565Z,90.20
2019-04-03T17:02:38.850Z,90.50
2019-04-03T17:05:11.331Z,90.20
2019-04-03T17:07:39.279Z,90.20
2019-04-03T17:10:09.937Z,90.40
2019-04-03T17:12:38.478Z,90.30
2019-04-03T17:15:09.594Z,90.60
2019-04-03T17:17:37.673Z,90.80
2019-04-03T17:20:07.968Z,90.00
2019-04-03T17:22:38.897Z,90.00
2019-04-03T17:25:08.747Z,88.90
2019-04-03T17:27:39.319Z,89.40
2019-04-03T17:30:10.350Z,90.30
2019-04-03T17:32:39.944Z,89.30
2019-04-03T17:35:08.884Z,89.80
2019-04-03T17:37:38.456Z,89.60
2019-04-03T17:40:10.118Z,90.10
2019-04-03T17:42:39.233Z,90.30
2019-04-03T17:45:09.635Z,90.30
2019-04-03T17:47:38.171Z,90.40
2019-04-03T17:50:08.564Z,90.10
2019-04-03T17:52:37.217Z,90.00
2019-04-03T17:55:10.067Z,90.30
2019-04-03T17:57:39.383Z,90.40
2019-04-03T18:00:13.921Z,90.60
2019-04-03T18:02:42.591Z,90.70
2019-04-03T18:05:11.655Z,90.40
2019-04-03T18:07:40.572Z,89.50
2019-04-03T18:10:12.444Z,90.00
2019-04-03T18:12:39.966Z,90.10
2019-04-03T18:15:09.792Z,90.00
2019-04-03T18:17:38.428Z,91.10
2019-04-03T18:20:08.212Z,90.50
2019-04-03T18:22:36.735Z,90.70
2019-04-03T18:25:08.359Z,90.70
2019-04-03T18:27:37.108Z,90.40
2019-04-03T18:30:11.425Z,90.70
2019-04-03T18:32:38.830Z,90.90
2019-04-03T18:35:07.954Z,90.60
2019-04-03T18:37:36.450Z,90.40
2019-04-03T18:40:07.171Z,90.00
2019-04-03T18:42:35.815Z,90.00
2019-04-03T18:45:05.964Z,90.10
2019-04-03T18:47:41.284Z,90.30
2019-04-03T18:50:06.496Z,89.70
2019-04-03T18:52:38.550Z,90.00
2019-04-03T18:55:07.637Z,90.20
2019-04-03T18:57:36.300Z,90.30
2019-04-03T19:00:08.153Z,89.70
2019-04-03T19:02:36.732Z,88.60
2019-04-03T19:05:09.870Z,88.50
2019-04-03T19:07:38.960Z,88.60
2019-04-03T19:10:08.297Z,89.80
2019-04-03T19:12:37.214Z,89.30
2019-04-03T19:15:07.028Z,89.00
2019-04-03T19:17:35.569Z,88.80
2019-04-03T19:20:10.776Z,89.00
2019-04-03T19:22:36.061Z,88.60
2019-04-03T19:25:07.004Z,88.60
2019-04-03T19:27:35.848Z,88.30
2019-04-03T19:30:07.051Z,87.70
2019-04-03T19:32:36.702Z,87.10
2019-04-03T19:35:09.452Z,86.60
2019-04-03T19:37:39.150Z,86.90
2019-04-03T19:40:09.700Z,87.50
2019-04-03T19:42:38.822Z,87.00
2019-04-03T19:45:08.143Z,87.20
2019-04-03T19:47:36.879Z,86.70
2019-04-03T19:50:09.438Z,86.00
2019-04-03T19:52:41.615Z,86.90
2019-04-03T19:55:09.171Z,86.70
2019-04-03T19:57:38.000Z,85.60
2019-04-03T20:00:08.139Z,85.70
2019-04-03T20:02:38.214Z,88.30
2019-04-03T20:05:07.262Z,90.00
2019-04-03T20:07:35.804Z,90.80
2019-04-03T20:10:07.147Z,90.70
2019-04-03T20:12:35.782Z,90.70
2019-04-03T20:15:07.112Z,90.50
2019-04-03T20:17:36.818Z,90.60
2019-04-03T20:20:09.281Z,90.60
2019-04-03T20:22:42.133Z,90.80
2019-04-03T20:25:08.365Z,90.40
2019-04-03T20:27:37.180Z,90.30
2019-04-03T20:30:09.149Z,89.40
2019-04-03T20:32:40.079Z,89.30
2019-04-03T20:35:08.678Z,88.70
2019-04-03T20:37:37.337Z,88.80
2019-04-03T20:40:09.152Z,89.10
2019-04-03T20:42:40.808Z,88.40
2019-04-03T20:45:08.482Z,88.70
2019-04-03T20:47:37.073Z,88.50
2019-04-03T20:50:07.891Z,88.60
2019-04-03T20:52:36.378Z,89.10
2019-04-03T20:55:06.760Z,89.00
2019-04-03T20:57:35.328Z,89.70
2019-04-03T21:00:12.172Z,89.20
2019-04-03T21:02:42.153Z,89.30
2019-04-03T21:05:11.007Z,89.60
2019-04-03T21:07:39.528Z,89.10
2019-04-03T21:10:08.809Z,89.40
2019-04-03T21:12:37.490Z,90.30
2019-04-03T21:15:08.819Z,90.00
2019-04-03T21:17:36.439Z,89.80
2019-04-03T21:20:06.924Z,89.50
2019-04-03T21:22:35.371Z,89.90
2019-04-03T21:25:05.979Z,89.70
2019-04-03T21:27:34.989Z,89.80
2019-04-03T21:30:05.273Z,90.20
2019-04-03T21:32:33.908Z,90.00
2019-04-03T21:35:03.923Z,90.00
2019-04-03T21:37:32.912Z,90.10
2019-04-03T21:40:04.697Z,90.10
2019-04-03T21:42:31.852Z,90.10
2019-04-03T21:45:02.576Z,89.70
2019-04-03T21:47:30.990Z,89.70
2019-04-03T21:49:59.481Z,90.10
2019-04-03T21:52:27.971Z,89.70
2019-04-03T21:54:58.434Z,89.30
2019-04-03T21:57:26.942Z,89.30
2019-04-03T21:59:55.525Z,89.40
2019-04-03T22:02:23.995Z,89.50
2019-04-03T22:04:53.874Z,89.90
2019-04-03T22:07:23.043Z,90.00
2019-04-03T22:09:51.502Z,90.10
2019-04-03T22:12:20.050Z,89.70
2019-04-03T22:14:48.515Z,89.60
2019-04-03T22:17:16.990Z,89.70
2019-04-03T22:19:45.683Z,89.40
2019-04-03T22:22:14.304Z,89.50
2019-04-03T22:24:42.747Z,89.60
2019-04-03T22:27:11.516Z,89.90
2019-04-03T22:29:40.747Z,89.90
2019-04-03T22:32:09.367Z,90.00
2019-04-03T22:34:37.844Z,90.20
2019-04-03T22:37:06.810Z,90.00
2019-04-03T22:39:36.982Z,89.60
2019-04-03T22:42:05.612Z,90.10
2019-04-03T22:44:34.043Z,90.10
2019-04-03T22:47:02.547Z,90.30
2019-04-03T22:49:33.626Z,90.20
2019-04-03T22:52:01.436Z,90.30
2019-04-03T22:54:30.502Z,90.40
2019-04-03T22:56:59.032Z,90.30
2019-04-03T22:59:27.495Z,90.20
2019-04-03T23:01:56.244Z,90.20
2019-04-03T23:04:24.706Z,90.00
2019-04-03T23:06:53.391Z,90.10
2019-04-03T23:09:24.726Z,90.00
2019-04-03T23:11:52.291Z,90.00
2019-04-03T23:14:21.004Z,89.70
2019-04-03T23:16:49.706Z,89.90
2019-04-03T23:19:18.618Z,89.80
2019-04-03T23:21:47.161Z,90.10
2019-04-03T23:24:15.678Z,90.10
2019-04-03T23:26:44.122Z,89.80
2019-04-03T23:29:12.838Z,90.00
2019-04-03T23:31:44.658Z,90.10
2019-04-03T23:34:11.762Z,90.10
2019-04-03T23:36:40.484Z,90.50
2019-04-03T23:39:09.430Z,90.60
2019-04-03T23:41:37.935Z,90.50
2019-04-03T23:44:06.389Z,90.70
2019-04-03T23:46:35.148Z,90.60
2019-04-03T23:49:03.699Z,90.60
2019-04-03T23:51:32.786Z,90.60
2019-04-03T23:54:02.814Z,90.40
2019-04-03T23:56:31.932Z,90.40
2019-04-03T23:59:00.561Z,90.90
